sensor_id;sensor_type;location;lat;lon;timestamp;P1;durP1;ratioP1;P2;durP2;ratioP2
65289;SDS011;51893;59.754;10.110;2023-02-28T00:01:34;3.40;;;2.20;;
65289;SDS011;51893;59.754;10.110;2023-02-28T00:04:02;2.00;;;1.60;;
65289;SDS011;51893;59.754;10.110;2023-02-28T00:06:30;6.30;;;2.30;;
65289;SDS011;51893;59.754;10.110;2023-02-28T00:08:58;4.30;;;2.30;;
65289;SDS011;51893;59.754;10.110;2023-02-28T00:11:26;2.20;;;1.60;;
65289;SDS011;51893;59.754;10.110;2023-02-28T00:13:54;4.10;;;2.00;;
65289;SDS011;51893;59.754;10.110;2023-02-28T00:16:23;1.60;;;1.50;;
65289;SDS011;51893;59.754;10.110;2023-02-28T00:18:51;3.10;;;1.50;;
65289;SDS011;51893;59.754;10.110;2023-02-28T00:21:19;2.70;;;2.00;;
65289;SDS011;51893;59.754;10.110;2023-02-28T00:23:48;3.70;;;1.90;;
65289;SDS011;51893;59.754;10.110;2023-02-28T00:26:17;4.60;;;1.90;;
65289;SDS011;51893;59.754;10.110;2023-02-28T00:28:47;4.50;;;2.00;;
65289;SDS011;51893;59.754;10.110;2023-02-28T00:31:16;3.00;;;2.10;;
65289;SDS011;51893;59.754;10.110;2023-02-28T00:33:43;4.10;;;1.80;;
65289;SDS011;51893;59.754;10.110;2023-02-28T00:36:11;3.70;;;2.10;;
65289;SDS011;51893;59.754;10.110;2023-02-28T00:38:40;4.30;;;1.90;;
65289;SDS011;51893;59.754;10.110;2023-02-28T00:41:08;2.40;;;2.10;;
65289;SDS011;51893;59.754;10.110;2023-02-28T00:43:38;3.30;;;2.20;;
65289;SDS011;51893;59.754;10.110;2023-02-28T00:46:07;5.10;;;2.50;;
65289;SDS011;51893;59.754;10.110;2023-02-28T00:48:36;2.80;;;2.00;;
65289;SDS011;51893;59.754;10.110;2023-02-28T00:51:04;4.50;;;2.10;;
65289;SDS011;51893;59.754;10.110;2023-02-28T00:53:33;6.20;;;2.30;;
65289;SDS011;51893;59.754;10.110;2023-02-28T00:56:02;3.40;;;2.10;;
65289;SDS011;51893;59.754;10.110;2023-02-28T00:58:31;3.90;;;1.90;;
65289;SDS011;51893;59.754;10.110;2023-02-28T01:00:59;4.10;;;2.30;;
65289;SDS011;51893;59.754;10.110;2023-02-28T01:03:27;1.70;;;1.30;;
65289;SDS011;51893;59.754;10.110;2023-02-28T01:05:55;1.70;;;1.50;;
65289;SDS011;51893;59.754;10.110;2023-02-28T01:08:24;1.70;;;1.30;;
65289;SDS011;51893;59.754;10.110;2023-02-28T01:10:53;1.70;;;1.60;;
65289;SDS011;51893;59.754;10.110;2023-02-28T01:13:22;2.90;;;1.70;;
65289;SDS011;51893;59.754;10.110;2023-02-28T01:15:53;4.40;;;1.90;;
65289;SDS011;51893;59.754;10.110;2023-02-28T01:18:25;2.70;;;2.10;;
65289;SDS011;51893;59.754;10.110;2023-02-28T01:20:54;5.60;;;1.60;;
65289;SDS011;51893;59.754;10.110;2023-02-28T01:23:24;1.60;;;1.50;;
65289;SDS011;51893;59.754;10.110;2023-02-28T01:25:52;3.00;;;1.80;;
65289;SDS011;51893;59.754;10.110;2023-02-28T01:28:20;2.60;;;1.60;;
65289;SDS011;51893;59.754;10.110;2023-02-28T01:30:49;4.00;;;1.50;;
65289;SDS011;51893;59.754;10.110;2023-02-28T01:33:19;3.50;;;2.00;;
65289;SDS011;51893;59.754;10.110;2023-02-28T01:35:47;2.80;;;1.60;;
65289;SDS011;51893;59.754;10.110;2023-02-28T01:38:17;1.90;;;1.30;;
65289;SDS011;51893;59.754;10.110;2023-02-28T01:40:50;1.40;;;1.10;;
65289;SDS011;51893;59.754;10.110;2023-02-28T01:43:28;2.20;;;1.50;;
65289;SDS011;51893;59.754;10.110;2023-02-28T01:45:59;2.30;;;1.70;;
65289;SDS011;51893;59.754;10.110;2023-02-28T01:48:31;3.70;;;1.90;;
65289;SDS011;51893;59.754;10.110;2023-02-28T01:51:06;4.10;;;2.10;;
65289;SDS011;51893;59.754;10.110;2023-02-28T01:53:44;4.10;;;2.10;;
65289;SDS011;51893;59.754;10.110;2023-02-28T01:56:19;3.70;;;2.20;;
65289;SDS011;51893;59.754;10.110;2023-02-28T01:58:52;2.20;;;1.90;;
65289;SDS011;51893;59.754;10.110;2023-02-28T02:01:23;1.90;;;1.40;;
65289;SDS011;51893;59.754;10.110;2023-02-28T02:03:57;3.30;;;1.90;;
65289;SDS011;51893;59.754;10.110;2023-02-28T02:06:34;3.20;;;1.70;;
65289;SDS011;51893;59.754;10.110;2023-02-28T02:09:11;2.20;;;1.70;;
65289;SDS011;51893;59.754;10.110;2023-02-28T02:11:44;2.60;;;1.80;;
65289;SDS011;51893;59.754;10.110;2023-02-28T02:14:49;2.60;;;1.70;;
65289;SDS011;51893;59.754;10.110;2023-02-28T02:17:39;1.70;;;1.60;;
65289;SDS011;51893;59.754;10.110;2023-02-28T02:35:24;1.70;;;1.40;;
65289;SDS011;51893;59.754;10.110;2023-02-28T02:41:18;3.40;;;1.50;;
65289;SDS011;51893;59.754;10.110;2023-02-28T02:44:26;2.70;;;1.80;;
65289;SDS011;51893;59.754;10.110;2023-02-28T02:47:12;3.00;;;1.40;;
65289;SDS011;51893;59.754;10.110;2023-02-28T02:49:49;3.30;;;1.40;;
65289;SDS011;51893;59.754;10.110;2023-02-28T02:52:23;2.10;;;1.60;;
65289;SDS011;51893;59.754;10.110;2023-02-28T02:54:58;3.70;;;1.70;;
65289;SDS011;51893;59.754;10.110;2023-02-28T02:57:35;1.70;;;1.30;;
65289;SDS011;51893;59.754;10.110;2023-02-28T03:00:18;1.30;;;1.20;;
65289;SDS011;51893;59.754;10.110;2023-02-28T03:02:52;4.50;;;1.50;;
65289;SDS011;51893;59.754;10.110;2023-02-28T03:05:27;4.40;;;1.80;;
65289;SDS011;51893;59.754;10.110;2023-02-28T03:08:04;1.50;;;1.40;;
65289;SDS011;51893;59.754;10.110;2023-02-28T03:11:18;1.80;;;1.10;;
65289;SDS011;51893;59.754;10.110;2023-02-28T03:13:40;2.30;;;1.30;;
65289;SDS011;51893;59.754;10.110;2023-02-28T03:16:35;2.30;;;1.50;;
65289;SDS011;51893;59.754;10.110;2023-02-28T03:23:01;1.00;;;1.00;;
65289;SDS011;51893;59.754;10.110;2023-02-28T03:29:00;3.60;;;1.30;;
65289;SDS011;51893;59.754;10.110;2023-02-28T03:32:07;2.10;;;1.00;;
65289;SDS011;51893;59.754;10.110;2023-02-28T03:35:08;1.30;;;1.10;;
65289;SDS011;51893;59.754;10.110;2023-02-28T03:37:42;1.20;;;1.10;;
65289;SDS011;51893;59.754;10.110;2023-02-28T03:40:32;1.60;;;1.20;;
65289;SDS011;51893;59.754;10.110;2023-02-28T03:43:08;0.90;;;0.90;;
65289;SDS011;51893;59.754;10.110;2023-02-28T03:45:43;0.50;;;0.50;;
65289;SDS011;51893;59.754;10.110;2023-02-28T03:48:19;0.80;;;0.80;;
65289;SDS011;51893;59.754;10.110;2023-02-28T03:50:54;1.00;;;0.80;;
65289;SDS011;51893;59.754;10.110;2023-02-28T03:53:36;1.30;;;1.20;;
65289;SDS011;51893;59.754;10.110;2023-02-28T03:56:31;1.50;;;1.00;;
65289;SDS011;51893;59.754;10.110;2023-02-28T03:59:34;1.00;;;0.90;;
65289;SDS011;51893;59.754;10.110;2023-02-28T04:02:07;1.80;;;1.40;;
65289;SDS011;51893;59.754;10.110;2023-02-28T04:04:36;1.50;;;1.40;;
65289;SDS011;51893;59.754;10.110;2023-02-28T04:07:07;1.90;;;1.70;;
65289;SDS011;51893;59.754;10.110;2023-02-28T04:09:36;1.20;;;1.10;;
65289;SDS011;51893;59.754;10.110;2023-02-28T04:12:04;1.70;;;1.60;;
65289;SDS011;51893;59.754;10.110;2023-02-28T04:14:32;2.20;;;1.40;;
65289;SDS011;51893;59.754;10.110;2023-02-28T04:17:01;1.20;;;1.10;;
65289;SDS011;51893;59.754;10.110;2023-02-28T04:19:29;1.80;;;1.50;;
65289;SDS011;51893;59.754;10.110;2023-02-28T04:21:57;3.50;;;3.20;;
65289;SDS011;51893;59.754;10.110;2023-02-28T04:24:27;3.20;;;2.90;;
65289;SDS011;51893;59.754;10.110;2023-02-28T04:26:56;3.30;;;1.20;;
65289;SDS011;51893;59.754;10.110;2023-02-28T04:29:31;1.40;;;1.30;;
65289;SDS011;51893;59.754;10.110;2023-02-28T04:32:03;1.60;;;1.10;;
65289;SDS011;51893;59.754;10.110;2023-02-28T04:34:32;2.30;;;1.70;;
65289;SDS011;51893;59.754;10.110;2023-02-28T04:37:01;1.40;;;1.30;;
65289;SDS011;51893;59.754;10.110;2023-02-28T04:39:41;5.30;;;1.70;;
65289;SDS011;51893;59.754;10.110;2023-02-28T04:42:11;0.90;;;0.80;;
65289;SDS011;51893;59.754;10.110;2023-02-28T04:44:40;1.40;;;1.10;;
65289;SDS011;51893;59.754;10.110;2023-02-28T04:47:08;1.60;;;1.30;;
65289;SDS011;51893;59.754;10.110;2023-02-28T04:49:37;0.90;;;0.90;;
65289;SDS011;51893;59.754;10.110;2023-02-28T04:52:05;2.70;;;1.20;;
65289;SDS011;51893;59.754;10.110;2023-02-28T04:54:35;1.40;;;1.30;;
65289;SDS011;51893;59.754;10.110;2023-02-28T04:57:03;1.40;;;1.30;;
65289;SDS011;51893;59.754;10.110;2023-02-28T04:59:31;1.50;;;1.00;;
65289;SDS011;51893;59.754;10.110;2023-02-28T05:02:00;1.40;;;1.30;;
65289;SDS011;51893;59.754;10.110;2023-02-28T05:04:35;1.20;;;1.10;;
65289;SDS011;51893;59.754;10.110;2023-02-28T05:07:04;1.10;;;0.90;;
65289;SDS011;51893;59.754;10.110;2023-02-28T05:09:32;1.10;;;1.00;;
65289;SDS011;51893;59.754;10.110;2023-02-28T05:12:03;2.30;;;1.30;;
65289;SDS011;51893;59.754;10.110;2023-02-28T05:14:31;3.30;;;1.30;;
65289;SDS011;51893;59.754;10.110;2023-02-28T05:16:59;1.80;;;1.00;;
65289;SDS011;51893;59.754;10.110;2023-02-28T05:19:27;1.70;;;1.30;;
65289;SDS011;51893;59.754;10.110;2023-02-28T05:21:56;1.50;;;1.10;;
65289;SDS011;51893;59.754;10.110;2023-02-28T05:24:24;2.70;;;1.30;;
65289;SDS011;51893;59.754;10.110;2023-02-28T05:26:53;1.30;;;1.20;;
65289;SDS011;51893;59.754;10.110;2023-02-28T05:29:22;2.00;;;1.20;;
65289;SDS011;51893;59.754;10.110;2023-02-28T05:31:50;5.00;;;1.30;;
65289;SDS011;51893;59.754;10.110;2023-02-28T05:34:18;1.60;;;1.40;;
65289;SDS011;51893;59.754;10.110;2023-02-28T05:36:47;1.00;;;0.80;;
65289;SDS011;51893;59.754;10.110;2023-02-28T05:39:16;1.40;;;1.10;;
65289;SDS011;51893;59.754;10.110;2023-02-28T05:41:43;3.20;;;1.00;;
65289;SDS011;51893;59.754;10.110;2023-02-28T05:44:15;2.60;;;0.80;;
65289;SDS011;51893;59.754;10.110;2023-02-28T05:46:43;1.30;;;1.20;;
65289;SDS011;51893;59.754;10.110;2023-02-28T05:49:11;2.40;;;1.40;;
65289;SDS011;51893;59.754;10.110;2023-02-28T05:51:40;2.20;;;1.30;;
65289;SDS011;51893;59.754;10.110;2023-02-28T05:54:08;1.60;;;1.00;;
65289;SDS011;51893;59.754;10.110;2023-02-28T05:56:37;2.00;;;1.30;;
65289;SDS011;51893;59.754;10.110;2023-02-28T05:59:07;3.50;;;1.30;;
65289;SDS011;51893;59.754;10.110;2023-02-28T06:01:37;1.50;;;1.40;;
65289;SDS011;51893;59.754;10.110;2023-02-28T06:04:18;1.40;;;1.30;;
65289;SDS011;51893;59.754;10.110;2023-02-28T06:07:00;1.90;;;1.20;;
65289;SDS011;51893;59.754;10.110;2023-02-28T06:09:29;1.20;;;1.10;;
65289;SDS011;51893;59.754;10.110;2023-02-28T06:11:58;1.50;;;1.40;;
65289;SDS011;51893;59.754;10.110;2023-02-28T06:14:27;2.80;;;1.50;;
65289;SDS011;51893;59.754;10.110;2023-02-28T06:16:55;1.60;;;1.30;;
65289;SDS011;51893;59.754;10.110;2023-02-28T06:19:26;3.00;;;1.30;;
65289;SDS011;51893;59.754;10.110;2023-02-28T06:21:55;1.20;;;1.10;;
65289;SDS011;51893;59.754;10.110;2023-02-28T06:24:25;1.10;;;0.80;;
65289;SDS011;51893;59.754;10.110;2023-02-28T06:26:56;2.80;;;1.70;;
65289;SDS011;51893;59.754;10.110;2023-02-28T06:29:26;4.30;;;2.40;;
65289;SDS011;51893;59.754;10.110;2023-02-28T06:31:54;2.60;;;2.00;;
65289;SDS011;51893;59.754;10.110;2023-02-28T06:34:24;2.60;;;1.80;;
65289;SDS011;51893;59.754;10.110;2023-02-28T06:36:52;4.00;;;1.80;;
65289;SDS011;51893;59.754;10.110;2023-02-28T06:39:20;1.60;;;1.40;;
65289;SDS011;51893;59.754;10.110;2023-02-28T06:41:49;3.80;;;1.80;;
65289;SDS011;51893;59.754;10.110;2023-02-28T06:44:23;1.60;;;1.50;;
65289;SDS011;51893;59.754;10.110;2023-02-28T06:46:51;1.90;;;1.70;;
65289;SDS011;51893;59.754;10.110;2023-02-28T06:49:20;3.30;;;1.90;;
65289;SDS011;51893;59.754;10.110;2023-02-28T06:51:48;4.00;;;1.70;;
65289;SDS011;51893;59.754;10.110;2023-02-28T06:54:16;1.90;;;1.60;;
65289;SDS011;51893;59.754;10.110;2023-02-28T06:56:43;2.30;;;1.70;;
65289;SDS011;51893;59.754;10.110;2023-02-28T06:59:11;2.00;;;1.70;;
65289;SDS011;51893;59.754;10.110;2023-02-28T07:01:40;1.90;;;1.40;;
65289;SDS011;51893;59.754;10.110;2023-02-28T07:04:09;2.80;;;1.80;;
65289;SDS011;51893;59.754;10.110;2023-02-28T07:06:36;3.00;;;1.80;;
65289;SDS011;51893;59.754;10.110;2023-02-28T07:09:05;2.60;;;1.60;;
65289;SDS011;51893;59.754;10.110;2023-02-28T07:11:33;1.60;;;1.40;;
65289;SDS011;51893;59.754;10.110;2023-02-28T07:14:00;1.90;;;1.70;;
65289;SDS011;51893;59.754;10.110;2023-02-28T07:16:28;3.50;;;1.60;;
65289;SDS011;51893;59.754;10.110;2023-02-28T07:18:56;4.30;;;1.90;;
65289;SDS011;51893;59.754;10.110;2023-02-28T07:21:24;3.40;;;2.40;;
65289;SDS011;51893;59.754;10.110;2023-02-28T07:23:53;2.10;;;1.80;;
65289;SDS011;51893;59.754;10.110;2023-02-28T07:26:20;3.40;;;1.90;;
65289;SDS011;51893;59.754;10.110;2023-02-28T07:28:49;2.90;;;1.70;;
65289;SDS011;51893;59.754;10.110;2023-02-28T07:31:17;2.60;;;2.00;;
65289;SDS011;51893;59.754;10.110;2023-02-28T07:33:47;1.70;;;1.40;;
65289;SDS011;51893;59.754;10.110;2023-02-28T07:36:16;2.20;;;2.00;;
65289;SDS011;51893;59.754;10.110;2023-02-28T07:38:48;1.10;;;0.90;;
65289;SDS011;51893;59.754;10.110;2023-02-28T07:41:19;2.00;;;1.70;;
65289;SDS011;51893;59.754;10.110;2023-02-28T07:43:49;1.80;;;1.60;;
65289;SDS011;51893;59.754;10.110;2023-02-28T07:46:17;4.80;;;2.00;;
65289;SDS011;51893;59.754;10.110;2023-02-28T07:48:46;3.30;;;1.30;;
65289;SDS011;51893;59.754;10.110;2023-02-28T07:51:13;8.00;;;2.40;;
65289;SDS011;51893;59.754;10.110;2023-02-28T07:53:41;3.10;;;2.30;;
65289;SDS011;51893;59.754;10.110;2023-02-28T07:56:10;3.60;;;2.30;;
65289;SDS011;51893;59.754;10.110;2023-02-28T07:58:38;1.60;;;1.50;;
65289;SDS011;51893;59.754;10.110;2023-02-28T08:01:14;4.00;;;2.40;;
65289;SDS011;51893;59.754;10.110;2023-02-28T08:03:49;2.20;;;1.50;;
65289;SDS011;51893;59.754;10.110;2023-02-28T08:06:22;2.50;;;1.70;;
65289;SDS011;51893;59.754;10.110;2023-02-28T08:08:52;2.50;;;1.80;;
65289;SDS011;51893;59.754;10.110;2023-02-28T08:11:22;4.20;;;1.50;;
65289;SDS011;51893;59.754;10.110;2023-02-28T08:13:50;3.40;;;1.70;;
65289;SDS011;51893;59.754;10.110;2023-02-28T08:16:18;2.50;;;2.00;;
65289;SDS011;51893;59.754;10.110;2023-02-28T08:18:51;5.90;;;2.30;;
65289;SDS011;51893;59.754;10.110;2023-02-28T08:21:20;4.60;;;2.30;;
65289;SDS011;51893;59.754;10.110;2023-02-28T08:23:50;2.10;;;1.60;;
65289;SDS011;51893;59.754;10.110;2023-02-28T08:26:19;2.60;;;1.80;;
65289;SDS011;51893;59.754;10.110;2023-02-28T08:28:48;1.70;;;1.50;;
65289;SDS011;51893;59.754;10.110;2023-02-28T08:31:17;1.20;;;1.10;;
65289;SDS011;51893;59.754;10.110;2023-02-28T08:33:46;5.30;;;2.40;;
65289;SDS011;51893;59.754;10.110;2023-02-28T08:36:17;3.10;;;1.60;;
65289;SDS011;51893;59.754;10.110;2023-02-28T08:38:46;4.90;;;1.80;;
65289;SDS011;51893;59.754;10.110;2023-02-28T08:41:13;1.50;;;1.40;;
65289;SDS011;51893;59.754;10.110;2023-02-28T08:43:42;2.90;;;2.00;;
65289;SDS011;51893;59.754;10.110;2023-02-28T08:46:12;1.60;;;1.50;;
65289;SDS011;51893;59.754;10.110;2023-02-28T08:48:42;2.70;;;1.70;;
65289;SDS011;51893;59.754;10.110;2023-02-28T08:51:16;2.00;;;1.70;;
65289;SDS011;51893;59.754;10.110;2023-02-28T08:53:49;2.00;;;1.80;;
65289;SDS011;51893;59.754;10.110;2023-02-28T08:56:18;2.90;;;2.10;;
65289;SDS011;51893;59.754;10.110;2023-02-28T08:58:48;4.40;;;1.90;;
65289;SDS011;51893;59.754;10.110;2023-02-28T09:01:26;2.70;;;1.80;;
65289;SDS011;51893;59.754;10.110;2023-02-28T09:03:56;2.50;;;1.70;;
65289;SDS011;51893;59.754;10.110;2023-02-28T09:06:26;1.70;;;1.50;;
65289;SDS011;51893;59.754;10.110;2023-02-28T09:08:58;2.00;;;1.60;;
65289;SDS011;51893;59.754;10.110;2023-02-28T09:11:29;4.00;;;1.70;;
65289;SDS011;51893;59.754;10.110;2023-02-28T09:13:58;2.10;;;1.50;;
65289;SDS011;51893;59.754;10.110;2023-02-28T09:16:30;2.70;;;1.70;;
65289;SDS011;51893;59.754;10.110;2023-02-28T09:19:02;2.70;;;2.00;;
65289;SDS011;51893;59.754;10.110;2023-02-28T09:21:30;9.70;;;2.10;;
65289;SDS011;51893;59.754;10.110;2023-02-28T09:23:58;4.90;;;1.90;;
65289;SDS011;51893;59.754;10.110;2023-02-28T09:26:27;3.80;;;1.90;;
65289;SDS011;51893;59.754;10.110;2023-02-28T09:29:09;1.90;;;1.70;;
65289;SDS011;51893;59.754;10.110;2023-02-28T09:31:38;3.60;;;2.10;;
65289;SDS011;51893;59.754;10.110;2023-02-28T09:34:09;7.00;;;2.30;;
65289;SDS011;51893;59.754;10.110;2023-02-28T09:36:37;2.60;;;2.00;;
65289;SDS011;51893;59.754;10.110;2023-02-28T09:39:12;2.50;;;1.60;;
65289;SDS011;51893;59.754;10.110;2023-02-28T09:41:45;2.60;;;1.70;;
65289;SDS011;51893;59.754;10.110;2023-02-28T09:44:40;3.40;;;1.10;;
65289;SDS011;51893;59.754;10.110;2023-02-28T09:47:26;5.70;;;1.80;;
65289;SDS011;51893;59.754;10.110;2023-02-28T09:50:06;1.20;;;1.20;;
65289;SDS011;51893;59.754;10.110;2023-02-28T09:52:49;4.00;;;1.90;;
65289;SDS011;51893;59.754;10.110;2023-02-28T09:55:42;6.70;;;2.70;;
65289;SDS011;51893;59.754;10.110;2023-02-28T09:58:48;4.90;;;2.00;;
65289;SDS011;51893;59.754;10.110;2023-02-28T10:04:53;5.30;;;2.10;;
65289;SDS011;51893;59.754;10.110;2023-02-28T10:12:59;6.60;;;2.20;;
65289;SDS011;51893;59.754;10.110;2023-02-28T10:15:34;5.30;;;2.10;;
65289;SDS011;51893;59.754;10.110;2023-02-28T10:18:06;3.80;;;2.10;;
65289;SDS011;51893;59.754;10.110;2023-02-28T10:20:41;6.70;;;2.10;;
65289;SDS011;51893;59.754;10.110;2023-02-28T10:23:28;3.90;;;1.80;;
65289;SDS011;51893;59.754;10.110;2023-02-28T10:26:01;3.50;;;1.60;;
65289;SDS011;51893;59.754;10.110;2023-02-28T10:28:39;3.50;;;2.00;;
65289;SDS011;51893;59.754;10.110;2023-02-28T10:31:13;5.50;;;1.70;;
65289;SDS011;51893;59.754;10.110;2023-02-28T10:33:47;3.00;;;2.10;;
65289;SDS011;51893;59.754;10.110;2023-02-28T10:36:18;5.70;;;1.90;;
65289;SDS011;51893;59.754;10.110;2023-02-28T10:38:48;4.70;;;2.60;;
65289;SDS011;51893;59.754;10.110;2023-02-28T10:41:30;6.00;;;1.60;;
65289;SDS011;51893;59.754;10.110;2023-02-28T10:46:48;3.20;;;1.40;;
65289;SDS011;51893;59.754;10.110;2023-02-28T10:49:26;4.50;;;1.60;;
65289;SDS011;51893;59.754;10.110;2023-02-28T10:51:59;3.30;;;2.20;;
65289;SDS011;51893;59.754;10.110;2023-02-28T10:54:33;1.50;;;1.30;;
65289;SDS011;51893;59.754;10.110;2023-02-28T10:57:20;6.00;;;1.50;;
65289;SDS011;51893;59.754;10.110;2023-02-28T11:00:12;6.50;;;1.80;;
65289;SDS011;51893;59.754;10.110;2023-02-28T11:02:45;4.00;;;1.30;;
65289;SDS011;51893;59.754;10.110;2023-02-28T11:05:31;2.10;;;1.00;;
65289;SDS011;51893;59.754;10.110;2023-02-28T11:08:14;3.40;;;1.70;;
65289;SDS011;51893;59.754;10.110;2023-02-28T11:10:54;3.00;;;1.40;;
65289;SDS011;51893;59.754;10.110;2023-02-28T11:13:29;3.60;;;1.90;;
65289;SDS011;51893;59.754;10.110;2023-02-28T11:16:07;3.30;;;1.50;;
65289;SDS011;51893;59.754;10.110;2023-02-28T11:18:53;4.00;;;1.80;;
65289;SDS011;51893;59.754;10.110;2023-02-28T11:21:37;2.50;;;1.40;;
65289;SDS011;51893;59.754;10.110;2023-02-28T11:24:33;1.50;;;1.40;;
65289;SDS011;51893;59.754;10.110;2023-02-28T11:27:05;4.70;;;1.60;;
65289;SDS011;51893;59.754;10.110;2023-02-28T11:29:33;4.80;;;1.60;;
65289;SDS011;51893;59.754;10.110;2023-02-28T11:32:11;2.00;;;1.70;;
65289;SDS011;51893;59.754;10.110;2023-02-28T11:35:03;6.40;;;1.60;;
65289;SDS011;51893;59.754;10.110;2023-02-28T11:37:38;2.70;;;1.40;;
65289;SDS011;51893;59.754;10.110;2023-02-28T11:46:43;4.50;;;1.50;;
65289;SDS011;51893;59.754;10.110;2023-02-28T11:50:01;1.60;;;1.10;;
65289;SDS011;51893;59.754;10.110;2023-02-28T11:55:46;2.80;;;1.60;;
65289;SDS011;51893;59.754;10.110;2023-02-28T11:58:37;5.00;;;1.60;;
65289;SDS011;51893;59.754;10.110;2023-02-28T12:04:35;4.80;;;1.80;;
65289;SDS011;51893;59.754;10.110;2023-02-28T12:08:09;1.80;;;1.40;;
65289;SDS011;51893;59.754;10.110;2023-02-28T12:16:47;5.30;;;2.10;;
65289;SDS011;51893;59.754;10.110;2023-02-28T12:27:43;1.70;;;1.20;;
65289;SDS011;51893;59.754;10.110;2023-02-28T12:30:24;3.80;;;1.60;;
65289;SDS011;51893;59.754;10.110;2023-02-28T12:33:03;4.20;;;1.50;;
65289;SDS011;51893;59.754;10.110;2023-02-28T12:35:41;4.00;;;1.10;;
65289;SDS011;51893;59.754;10.110;2023-02-28T12:38:22;3.40;;;1.10;;
65289;SDS011;51893;59.754;10.110;2023-02-28T12:41:40;1.20;;;1.10;;
65289;SDS011;51893;59.754;10.110;2023-02-28T12:44:17;5.80;;;1.40;;
65289;SDS011;51893;59.754;10.110;2023-02-28T12:46:51;1.90;;;1.10;;
65289;SDS011;51893;59.754;10.110;2023-02-28T12:49:25;2.00;;;1.40;;
65289;SDS011;51893;59.754;10.110;2023-02-28T12:52:01;3.60;;;1.50;;
65289;SDS011;51893;59.754;10.110;2023-02-28T12:55:12;2.50;;;1.60;;
65289;SDS011;51893;59.754;10.110;2023-02-28T13:10:00;1.80;;;0.90;;
65289;SDS011;51893;59.754;10.110;2023-02-28T13:12:32;6.80;;;1.30;;
65289;SDS011;51893;59.754;10.110;2023-02-28T13:15:24;4.10;;;1.40;;
65289;SDS011;51893;59.754;10.110;2023-02-28T13:17:58;4.80;;;1.80;;
65289;SDS011;51893;59.754;10.110;2023-02-28T13:20:35;2.50;;;1.30;;
65289;SDS011;51893;59.754;10.110;2023-02-28T13:34:37;6.20;;;2.40;;
65289;SDS011;51893;59.754;10.110;2023-02-28T13:39:50;8.90;;;2.70;;
65289;SDS011;51893;59.754;10.110;2023-02-28T13:42:34;7.10;;;2.70;;
65289;SDS011;51893;59.754;10.110;2023-02-28T13:47:41;4.70;;;1.50;;
65289;SDS011;51893;59.754;10.110;2023-02-28T13:56:03;3.40;;;1.50;;
65289;SDS011;51893;59.754;10.110;2023-02-28T13:59:04;3.40;;;1.40;;
65289;SDS011;51893;59.754;10.110;2023-02-28T14:05:01;2.50;;;1.40;;
65289;SDS011;51893;59.754;10.110;2023-02-28T14:07:33;3.60;;;1.90;;
65289;SDS011;51893;59.754;10.110;2023-02-28T14:10:22;4.30;;;1.80;;
65289;SDS011;51893;59.754;10.110;2023-02-28T14:13:10;4.60;;;1.90;;
65289;SDS011;51893;59.754;10.110;2023-02-28T14:15:47;9.90;;;2.00;;
65289;SDS011;51893;59.754;10.110;2023-02-28T14:18:28;7.70;;;2.20;;
65289;SDS011;51893;59.754;10.110;2023-02-28T14:21:11;3.10;;;1.80;;
65289;SDS011;51893;59.754;10.110;2023-02-28T14:23:52;7.40;;;2.20;;
65289;SDS011;51893;59.754;10.110;2023-02-28T14:27:28;9.20;;;3.10;;
65289;SDS011;51893;59.754;10.110;2023-02-28T14:38:36;13.00;;;2.10;;
65289;SDS011;51893;59.754;10.110;2023-02-28T14:41:23;4.50;;;1.40;;
65289;SDS011;51893;59.754;10.110;2023-02-28T14:43:59;4.20;;;1.80;;
65289;SDS011;51893;59.754;10.110;2023-02-28T14:46:38;2.60;;;1.30;;
65289;SDS011;51893;59.754;10.110;2023-02-28T14:49:21;1.60;;;1.10;;
65289;SDS011;51893;59.754;10.110;2023-02-28T14:52:15;2.80;;;1.30;;
65289;SDS011;51893;59.754;10.110;2023-02-28T14:54:52;4.30;;;1.60;;
65289;SDS011;51893;59.754;10.110;2023-02-28T14:57:26;8.10;;;2.30;;
65289;SDS011;51893;59.754;10.110;2023-02-28T15:00:22;4.60;;;1.50;;
65289;SDS011;51893;59.754;10.110;2023-02-28T15:02:54;4.40;;;1.20;;
65289;SDS011;51893;59.754;10.110;2023-02-28T15:05:31;8.90;;;1.40;;
65289;SDS011;51893;59.754;10.110;2023-02-28T15:08:18;1.40;;;1.30;;
65289;SDS011;51893;59.754;10.110;2023-02-28T15:13:45;2.40;;;1.40;;
65289;SDS011;51893;59.754;10.110;2023-02-28T15:16:29;3.80;;;1.50;;
65289;SDS011;51893;59.754;10.110;2023-02-28T15:19:26;2.40;;;1.50;;
65289;SDS011;51893;59.754;10.110;2023-02-28T15:22:07;6.80;;;1.70;;
65289;SDS011;51893;59.754;10.110;2023-02-28T15:24:47;3.30;;;1.50;;
65289;SDS011;51893;59.754;10.110;2023-02-28T15:27:31;6.30;;;1.50;;
65289;SDS011;51893;59.754;10.110;2023-02-28T15:30:06;9.60;;;1.80;;
65289;SDS011;51893;59.754;10.110;2023-02-28T15:32:38;5.70;;;1.40;;
65289;SDS011;51893;59.754;10.110;2023-02-28T15:37:55;2.10;;;1.20;;
65289;SDS011;51893;59.754;10.110;2023-02-28T15:40:37;6.30;;;1.60;;
65289;SDS011;51893;59.754;10.110;2023-02-28T15:43:17;7.90;;;1.60;;
65289;SDS011;51893;59.754;10.110;2023-02-28T15:46:07;3.30;;;1.30;;
65289;SDS011;51893;59.754;10.110;2023-02-28T15:48:55;4.70;;;1.30;;
65289;SDS011;51893;59.754;10.110;2023-02-28T15:51:34;6.70;;;1.40;;
65289;SDS011;51893;59.754;10.110;2023-02-28T15:56:47;2.00;;;1.40;;
65289;SDS011;51893;59.754;10.110;2023-02-28T15:59:30;2.60;;;1.30;;
65289;SDS011;51893;59.754;10.110;2023-02-28T16:04:37;5.30;;;1.40;;
65289;SDS011;51893;59.754;10.110;2023-02-28T16:07:41;4.70;;;1.20;;
65289;SDS011;51893;59.754;10.110;2023-02-28T16:10:13;2.80;;;1.30;;
65289;SDS011;51893;59.754;10.110;2023-02-28T16:12:44;2.00;;;1.20;;
65289;SDS011;51893;59.754;10.110;2023-02-28T16:15:27;1.70;;;1.40;;
65289;SDS011;51893;59.754;10.110;2023-02-28T16:18:02;1.90;;;1.30;;
65289;SDS011;51893;59.754;10.110;2023-02-28T16:20:32;4.60;;;1.70;;
65289;SDS011;51893;59.754;10.110;2023-02-28T16:23:00;4.90;;;1.90;;
65289;SDS011;51893;59.754;10.110;2023-02-28T16:25:37;3.50;;;2.30;;
65289;SDS011;51893;59.754;10.110;2023-02-28T16:28:18;3.90;;;1.90;;
65289;SDS011;51893;59.754;10.110;2023-02-28T16:30:48;2.80;;;1.80;;
65289;SDS011;51893;59.754;10.110;2023-02-28T16:33:27;10.90;;;3.20;;
65289;SDS011;51893;59.754;10.110;2023-02-28T16:35:56;8.50;;;3.40;;
65289;SDS011;51893;59.754;10.110;2023-02-28T16:38:25;8.60;;;3.40;;
65289;SDS011;51893;59.754;10.110;2023-02-28T16:40:56;9.00;;;3.00;;
65289;SDS011;51893;59.754;10.110;2023-02-28T16:43:27;6.70;;;3.00;;
65289;SDS011;51893;59.754;10.110;2023-02-28T16:46:05;9.20;;;2.90;;
65289;SDS011;51893;59.754;10.110;2023-02-28T16:48:34;8.00;;;2.70;;
65289;SDS011;51893;59.754;10.110;2023-02-28T16:51:04;5.40;;;3.20;;
65289;SDS011;51893;59.754;10.110;2023-02-28T16:53:32;11.00;;;3.80;;
65289;SDS011;51893;59.754;10.110;2023-02-28T16:56:04;7.30;;;3.10;;
65289;SDS011;51893;59.754;10.110;2023-02-28T16:58:34;11.60;;;3.40;;
65289;SDS011;51893;59.754;10.110;2023-02-28T17:01:03;16.10;;;5.40;;
65289;SDS011;51893;59.754;10.110;2023-02-28T17:03:33;14.40;;;5.70;;
65289;SDS011;51893;59.754;10.110;2023-02-28T17:06:03;20.60;;;6.30;;
65289;SDS011;51893;59.754;10.110;2023-02-28T17:08:33;14.10;;;5.20;;
65289;SDS011;51893;59.754;10.110;2023-02-28T17:11:10;12.10;;;5.50;;
65289;SDS011;51893;59.754;10.110;2023-02-28T17:13:38;6.00;;;3.40;;
65289;SDS011;51893;59.754;10.110;2023-02-28T17:16:13;5.60;;;3.50;;
65289;SDS011;51893;59.754;10.110;2023-02-28T17:19:00;7.20;;;2.30;;
65289;SDS011;51893;59.754;10.110;2023-02-28T17:21:31;7.90;;;2.30;;